Coeur D'Alene - Pappy Boyington Field Coeur d'Alene US
ICAO: KCOE
IATA: COE
Category: Medium
Scheduled Services: No

Elevation: 2320 ft
TransAlt. 18000 ft.

Airport Communications:
SPOKANE APP/DEP:132.1
AWOS 3:135.075
SEATTLE CNTR:123.95
BOISE RDO:122.05
CTAF/UNICOM:122.8

KCOE Zoom In..

If you have problems with the map follow the link
https://www.worldairports.se/pages/airport.php?
ICAO=KCOE

Runways:

(A) RW 02 length 5400 ft width 75 ft
---- / hdg 13

(B) RW 06 length 7400 ft width 100 ft
ILS 110.70 / hdg 51

(C) RW 20 length 5400 ft width 75 ft
---- / hdg 193

(D) RW 24 length 7400 ft width 100 ft
---- / hdg 231

Location; KCOE
Day. 14 / Time. 03.56 Zulu
* Altimeter: 29.93
* Temperature: 00° c. 32°f.
* Wind from: 060° Speed 03 kn.
Dewpoint: -01° c.
Visibility: 4 Statute Miles.
Clouds: Overcast 900 ft.
Conditions: Mist.

KCOE 140356Z AUTO 06003KT 4SM BR OVC009 00/M01 A2993 RMK AO2 SLP174 T00001006 FZRANO


Wind From 060°
Speed 03 kn.

 
 
jpsmedia worldairports.se 2019   terms of use